METAR Data
IDs: Format: Raw Decoded Include TAF

Data at: 1955 UTC 17 Nov 2019

KHAE 171955Z AUTO 22005KT 4SM -RA BKN031 OVC050 06/04 A2990 RMK AO2 P0006
KHAE 171935Z AUTO 22005KT 3SM -RA BKN031 BKN037 OVC050 06/04 A2991 RMK AO2 P0004
KHAE 171915Z AUTO 23005KT 4SM -RA SCT037 OVC050 06/03 A2991 RMK AO2 P0002
KHAE 171855Z AUTO 22006KT 4SM -RA SCT028 SCT035 OVC055 06/03 A2991 RMK AO2 P0008
KHAE 171835Z AUTO 22006KT 2SM -RA SCT028 BKN049 OVC060 06/02 A2992 RMK AO2 P0005
KHAE 171815Z AUTO 23005KT 5SM -RA SCT026 SCT038 OVC060 06/02 A2993 RMK AO2 P0001
KHAE 171755Z AUTO 22006KT 5SM RA SCT023 SCT030 OVC060 06/02 A2994 RMK AO2
KHAE 171735Z AUTO 22004KT 5SM -RA SCT029 SCT034 OVC060 07/01 A2995 RMK AO2
KHAE 171715Z AUTO 22007KT 10SM DZ BKN060 OVC070 07/00 A2996 RMK AO2
KHAE 171655Z AUTO 19006KT 10SM SCT070 OVC090 07/00 A2995 RMK AO2
KHAE 171635Z AUTO 18006KT 10SM BKN100 BKN120 07/00 A2996 RMK AO2
KHAE 171615Z AUTO 17007KT 10SM BKN090 BKN120 07/00 A2996 RMK AO2
KHAE 171555Z AUTO 19008KT 10SM BKN090 BKN110 06/00 A2997 RMK AO2
KHAE 171535Z AUTO 19007KT 10SM SCT070 BKN090 BKN120 06/00 A2998 RMK AO2
KHAE 171515Z AUTO 19008KT 10SM BKN100 06/00 A2998 RMK AO2
KHAE 171455Z AUTO 19007KT 10SM BKN110 05/00 A2998 RMK AO2
KHAE 171435Z AUTO 18008KT 10SM BKN120 05/00 A2998 RMK AO2
KHAE 171415Z AUTO 17006KT 7SM SCT120 04/00 A2998 RMK AO2
KHAE 171355Z AUTO 17006KT 7SM SCT120 03/00 A2999 RMK AO2
KHAE 171335Z AUTO 16004KT 7SM SCT120 03/00 A3000 RMK AO2
KHAE 171315Z AUTO 17006KT 7SM SCT120 03/00 A3000 RMK AO2
KHAE 171255Z AUTO 17006KT 7SM SCT120 03/00 A3000 RMK AO2
KHAE 171235Z AUTO 17006KT 7SM CLR 03/00 A3000 RMK AO2
KHAE 171215Z AUTO 16006KT 7SM CLR 03/00 A3000 RMK AO2
KHAE 171155Z AUTO 17005KT 7SM CLR 03/00 A3002 RMK AO2
KHAE 171135Z AUTO 17006KT 7SM CLR 03/00 A3002 RMK AO2
KHAE 171115Z AUTO 16004KT 7SM CLR 03/M01 A3003 RMK AO2
KHAE 171055Z AUTO 16007KT 7SM CLR 03/M01 A3003 RMK AO2
KHAE 171035Z AUTO 16006KT 7SM CLR 03/M01 A3005 RMK AO2
KHAE 171015Z AUTO 15007KT 7SM CLR 03/M01 A3005 RMK AO2
KHAE 170955Z AUTO 15006KT 7SM CLR 03/M01 A3006 RMK AO2
KHAE 170935Z AUTO 16005KT 7SM CLR 02/M01 A3006 RMK AO2
KHAE 170915Z AUTO 16005KT 7SM CLR 03/M01 A3007 RMK AO2
KHAE 170855Z AUTO 14006KT 7SM CLR 03/M01 A3007 RMK AO2
KHAE 170835Z AUTO 14005KT 7SM CLR 03/M01 A3008 RMK AO2
KHAE 170815Z AUTO 15007KT 7SM CLR 03/M01 A3009 RMK AO2
KHAE 170755Z AUTO 15006KT 7SM CLR 03/M01 A3010 RMK AO2
KHAE 170735Z AUTO 16006KT 7SM CLR 03/M01 A3010 RMK AO2
KHAE 170715Z AUTO 14007KT 7SM CLR 02/M01 A3011 RMK AO2
KHAE 170655Z AUTO 14005KT 7SM CLR 02/M01 A3011 RMK AO2
KHAE 170635Z AUTO 15006KT 7SM CLR 03/M01 A3012 RMK AO2
KHAE 170615Z AUTO 15006KT 7SM CLR 03/M01 A3013 RMK AO2
KHAE 170555Z AUTO 15006KT 7SM CLR 03/M01 A3013 RMK AO2
KHAE 170535Z AUTO 15005KT 10SM CLR 03/M01 A3013 RMK AO2
KHAE 170515Z AUTO 14005KT 7SM CLR 03/M01 A3013 RMK AO2
KHAE 170455Z AUTO 13005KT 7SM CLR 03/M01 A3013 RMK AO2
KHAE 170435Z AUTO 13004KT 7SM CLR 02/M01 A3013 RMK AO2
KHAE 170415Z AUTO 13004KT 7SM CLR 02/M01 A3014 RMK AO2
KHAE 170355Z AUTO 12004KT 7SM CLR 03/M01 A3014 RMK AO2
KHAE 170335Z AUTO 11005KT 7SM CLR 03/M01 A3014 RMK AO2
KHAE 170315Z AUTO 12006KT 7SM CLR 03/M01 A3015 RMK AO2
KHAE 170255Z AUTO 11005KT 10SM CLR 03/M01 A3015 RMK AO2
KHAE 170235Z AUTO 12005KT 10SM CLR 03/M01 A3015 RMK AO2
KHAE 170215Z AUTO 12004KT 10SM CLR 03/M01 A3015 RMK AO2
KHAE 170155Z AUTO 13005KT 10SM CLR 04/M01 A3015 RMK AO2
KHAE 170135Z AUTO 12006KT 10SM CLR 04/M01 A3015 RMK AO2
KHAE 170115Z AUTO 11005KT 10SM CLR 05/M01 A3015 RMK AO2
KHAE 170055Z AUTO 12006KT 10SM CLR 05/M01 A3015 RMK AO2
KHAE 170035Z AUTO 11005KT 10SM CLR 05/00 A3016 RMK AO2
KHAE 170015Z AUTO 12004KT 10SM CLR 05/00 A3016 RMK AO2
KHAE 162355Z AUTO 11005KT 10SM CLR 05/00 A3016 RMK AO2
KHAE 162335Z AUTO 12004KT 10SM CLR 05/M01 A3016 RMK AO2
KHAE 162315Z AUTO 12005KT 10SM CLR 06/M01 A3016 RMK AO2
KHAE 162255Z AUTO 11004KT 10SM CLR 06/M01 A3016 RMK AO2
KHAE 162235Z AUTO 11005KT 10SM CLR 07/M01 A3017 RMK AO2
KHAE 162215Z AUTO 12006KT 10SM CLR 08/M01 A3018 RMK AO2
KHAE 162155Z AUTO 12005KT 10SM CLR 08/M01 A3018 RMK AO2
KHAE 162135Z AUTO 11007KT 10SM CLR 09/M01 A3018 RMK AO2
KHAE 162115Z AUTO 13006KT 10SM CLR 09/M01 A3020 RMK AO2
KHAE 162055Z AUTO 14004KT 10SM CLR 10/M01 A3020 RMK AO2
KHAE 162035Z AUTO 12004KT 10SM CLR 08/M01 A3021 RMK AO2
KHAE 162015Z AUTO 10005KT 10SM CLR 09/M01 A3021 RMK AO2
KHAE 161955Z AUTO 11004KT 10SM CLR 09/M01 A3022 RMK AO2
KHAE 161935Z AUTO 09004KT 10SM CLR 09/M01 A3024 RMK AO2
KHAE 161915Z AUTO 11005KT 10SM CLR 10/M01 A3025 RMK AO2
KHAE 161855Z AUTO 12005KT 10SM CLR 08/M01 A3025 RMK AO2
KHAE 161835Z AUTO 08005KT 10SM CLR 09/M01 A3026 RMK AO2
KHAE 161815Z AUTO 07005KT 10SM CLR 10/M01 A3027 RMK AO2
KHAE 161755Z AUTO 11003KT 10SM CLR 09/M01 A3028 RMK AO2
KHAE 161735Z AUTO 15004KT 10SM CLR 08/M01 A3030 RMK AO2
KHAE 161715Z AUTO 15003KT 10SM CLR 08/M01 A3031 RMK AO2
KHAE 161655Z AUTO 15005KT 10SM CLR 07/M01 A3032 RMK AO2
KHAE 161635Z AUTO 18006KT 10SM CLR 07/M01 A3033 RMK AO2
KHAE 161615Z AUTO 16006KT 10SM CLR 06/M01 A3033 RMK AO2
KHAE 161555Z AUTO 16006KT 10SM CLR 06/M02 A3034 RMK AO2
KHAE 161535Z AUTO 14006KT 10SM CLR 05/M02 A3034 RMK AO2
KHAE 161515Z AUTO 15005KT 10SM CLR 04/M02 A3034 RMK AO2
KHAE 161455Z AUTO 15004KT 10SM CLR 03/M02 A3034 RMK AO2
KHAE 161435Z AUTO 13006KT 10SM CLR 02/M03 A3034 RMK AO2
KHAE 161415Z AUTO 12003KT 10SM CLR 01/M03 A3034 RMK AO2
KHAE 161355Z AUTO 12004KT 10SM CLR 01/M03 A3035 RMK AO2
KHAE 161335Z AUTO 11004KT 10SM CLR 00/M04 A3034 RMK AO2
KHAE 161315Z AUTO 11004KT 10SM CLR 00/M04 A3035 RMK AO2
KHAE 161255Z AUTO 11004KT 10SM CLR 00/M05 A3035 RMK AO2
KHAE 161235Z AUTO 11004KT 10SM CLR 00/M05 A3035 RMK AO2
KHAE 161215Z AUTO 11004KT 10SM CLR 00/M05 A3035 RMK AO2
KHAE 161155Z AUTO 11005KT 10SM CLR 00/M05 A3035 RMK AO2
KHAE 161135Z AUTO 10005KT 10SM CLR 00/M05 A3035 RMK AO2
KHAE 161115Z AUTO 11004KT 10SM CLR 01/M06 A3035 RMK AO2
KHAE 161055Z AUTO 11004KT 10SM CLR 01/M06 A3035 RMK AO2
KHAE 161035Z AUTO 11004KT 10SM CLR 00/M06 A3035 RMK AO2
KHAE 161015Z AUTO 11004KT 10SM CLR 01/M06 A3034 RMK AO2
KHAE 160955Z AUTO 11003KT 10SM CLR 01/M06 A3034 RMK AO2
KHAE 160935Z AUTO 00000KT 10SM CLR 00/M07 A3034 RMK AO2
KHAE 160915Z AUTO 00000KT 10SM CLR 01/M07 A3034 RMK AO2
KHAE 160855Z AUTO 00000KT 10SM CLR 01/M07 A3033 RMK AO2
KHAE 160835Z AUTO 00000KT 10SM CLR 01/M07 A3033 RMK AO2
KHAE 160815Z AUTO 13003KT 10SM CLR 01/M07 A3034 RMK AO2